Time;durP1;ratioP1;P1;durP2;ratioP2;P2;SDS_P1;SDS_P2;PMS_P1;PMS_P2;Temp;Humidity;BMP_temperature;BMP_pressure;BME280_temperature;BME280_humidity;BME280_pressure;Samples;Min_cycle;Max_cycle;Signal;HPM_P1;HPM_P2
2021/04/08 00:02:26;;;;;;;4.78;1.98;;;10.20;66.20;;;;;;12089443;28;20053;-73
2021/04/08 00:08:13;;;;;;;6.55;2.13;;;10.20;66.30;;;;;;12091817;28;20040;-73
2021/04/08 00:13:59;;;;;;;5.57;2.03;;;10.10;66.60;;;;;;12098154;28;20040;-73
2021/04/08 00:19:46;;;;;;;5.63;2.30;;;10.10;67.20;;;;;;12102423;28;20063;-73
2021/04/08 00:25:33;;;;;;;5.32;2.22;;;10.10;67.10;;;;;;12095961;28;20089;-74
2021/04/08 00:31:19;;;;;;;5.70;2.40;;;10.10;67.50;;;;;;12092452;28;20131;-74
2021/04/08 00:37:06;;;;;;;6.00;2.67;;;10.10;68.00;;;;;;12092821;28;20044;-73
2021/04/08 00:42:53;;;;;;;8.90;2.50;;;10.00;68.10;;;;;;12100560;28;20468;-72
2021/04/08 00:48:39;;;;;;;6.13;2.50;;;10.00;69.20;;;;;;12104587;28;20048;-72
2021/04/08 00:54:26;;;;;;;5.10;2.50;;;10.10;70.30;;;;;;12090233;28;20051;-73
2021/04/08 01:00:14;;;;;;;6.30;3.15;;;10.10;69.90;;;;;;12088718;28;20530;-73
2021/04/08 01:06:01;;;;;;;7.85;3.08;;;10.10;69.20;;;;;;12096357;28;20040;-74
2021/04/08 01:11:50;;;;;;;7.80;3.58;;;10.10;69.20;;;;;;12093891;28;20104;-73
2021/04/08 01:17:43;;;;;;;5.95;2.55;;;10.10;70.40;;;;;;12090255;28;20055;-73
2021/04/08 01:23:56;;;;;;;5.75;2.85;;;10.10;70.60;;;;;;12104025;28;20056;-73
2021/04/08 01:30:11;;;;;;;5.88;3.08;;;10.10;71.10;;;;;;12096070;28;20064;-73
2021/04/08 01:36:04;;;;;;;9.60;3.33;;;10.00;71.40;;;;;;12100211;28;20057;-74
2021/04/08 01:41:54;;;;;;;6.07;3.00;;;10.00;70.90;;;;;;12099713;28;20039;-74
2021/04/08 01:47:43;;;;;;;5.82;3.00;;;10.00;71.30;;;;;;12083835;28;20110;-74
2021/04/08 01:53:33;;;;;;;9.18;3.15;;;9.90;71.90;;;;;;12094268;28;20055;-73
2021/04/08 01:59:22;;;;;;;7.85;2.78;;;10.00;73.10;;;;;;12099551;28;20048;-73
2021/04/08 02:05:11;;;;;;;6.70;2.88;;;10.00;73.30;;;;;;12094877;28;20044;-73
2021/04/08 02:11:00;;;;;;;6.38;2.75;;;10.00;73.40;;;;;;12117044;28;20059;-74
2021/04/08 02:16:48;;;;;;;9.43;3.10;;;10.00;73.00;;;;;;12111411;28;20524;-73
2021/04/08 07:00:53;;;;;;;11.32;4.70;;;8.40;87.20;;;;;;12127089;27;20115;-73
2021/04/08 07:06:41;;;;;;;17.30;4.85;;;9.20;84.00;;;;;;12123822;28;20054;-74
2021/04/08 07:12:27;;;;;;;22.15;5.03;;;9.70;80.30;;;;;;12121664;28;20537;-74
2021/04/08 07:18:15;;;;;;;16.52;5.03;;;10.00;78.70;;;;;;12119344;28;20104;-74
2021/04/08 07:24:14;;;;;;;18.27;4.93;;;10.30;77.00;;;;;;12125069;28;20521;-74
2021/04/08 07:30:02;;;;;;;11.80;4.70;;;10.50;76.30;;;;;;12127524;28;20494;-75
2021/04/08 07:35:49;;;;;;;9.57;4.90;;;10.70;75.30;;;;;;12108823;28;20048;-74
2021/04/08 07:41:37;;;;;;;16.05;4.78;;;10.90;74.60;;;;;;12109227;28;20056;-74
2021/04/08 07:47:26;;;;;;;16.05;4.75;;;11.00;73.90;;;;;;12116100;28;20491;-74
2021/04/08 07:53:20;;;;;;;11.70;4.57;;;11.10;72.40;;;;;;12112298;28;20066;-74
2021/04/08 07:59:21;;;;;;;9.73;5.35;;;11.20;72.20;;;;;;12115412;27;20074;-75
2021/04/08 08:05:22;;;;;;;20.38;5.43;;;11.30;71.40;;;;;;12120159;28;20147;-75
2021/04/08 08:11:11;;;;;;;22.63;5.30;;;11.50;71.50;;;;;;12090390;28;21001;-74
2021/04/08 08:17:04;;;;;;;11.55;4.32;;;11.60;70.30;;;;;;12088911;28;20055;-76
2021/04/08 08:22:51;;;;;;;10.77;5.20;;;11.70;68.00;;;;;;12081985;28;20044;-76
2021/04/08 08:28:38;;;;;;;12.35;4.70;;;11.70;66.90;;;;;;12081177;28;20045;-75
2021/04/08 08:34:27;;;;;;;11.73;4.88;;;11.70;68.10;;;;;;12080663;28;20502;-75
2021/04/08 08:40:14;;;;;;;14.35;5.07;;;11.80;66.60;;;;;;12086665;28;20458;-76
2021/04/08 08:46:01;;;;;;;13.23;4.78;;;11.90;66.80;;;;;;12090128;28;20044;-75
2021/04/08 08:51:50;;;;;;;9.30;4.18;;;12.10;66.00;;;;;;12088813;28;20048;-75
2021/04/08 08:57:38;;;;;;;12.77;4.57;;;12.20;65.40;;;;;;12080348;28;20072;-75
2021/04/08 09:03:25;;;;;;;16.27;4.47;;;12.30;65.20;;;;;;12082527;28;20048;-76
2021/04/08 09:09:14;;;;;;;11.73;4.40;;;12.50;64.40;;;;;;12078261;28;20048;-75
2021/04/08 09:15:01;;;;;;;14.20;5.20;;;12.40;63.80;;;;;;12084025;28;20558;-75
2021/04/08 09:20:50;;;;;;;13.50;4.78;;;12.50;64.20;;;;;;12080387;28;20056;-75
2021/04/08 09:26:38;;;;;;;12.90;4.97;;;12.60;62.90;;;;;;12083183;28;20052;-79
2021/04/08 09:32:30;;;;;;;12.82;4.72;;;12.80;63.00;;;;;;12080202;28;20048;-74
2021/04/08 09:38:18;;;;;;;12.15;4.75;;;13.00;62.80;;;;;;12077430;28;20059;-74
2021/04/08 09:44:05;;;;;;;8.88;3.97;;;13.10;62.50;;;;;;12080845;28;20060;-73
2021/04/08 09:49:51;;;;;;;7.05;4.60;;;13.20;61.80;;;;;;12070943;28;20045;-74
2021/04/08 09:55:41;;;;;;;11.00;3.83;;;13.30;61.00;;;;;;12078093;28;20055;-74
2021/04/08 10:01:27;;;;;;;11.27;4.30;;;13.40;60.40;;;;;;12081894;28;20044;-74
2021/04/08 10:07:13;;;;;;;8.98;3.80;;;13.50;60.50;;;;;;12079514;28;20113;-74
2021/04/08 10:13:01;;;;;;;17.23;4.38;;;13.60;61.00;;;;;;12083318;28;20105;-75
2021/04/08 10:18:58;;;;;;;26.65;4.88;;;13.60;60.10;;;;;;12075016;28;20134;-74
2021/04/08 10:24:45;;;;;;;15.60;5.00;;;13.70;60.30;;;;;;12081665;28;20082;-73
2021/04/08 10:30:38;;;;;;;12.75;4.68;;;13.90;59.70;;;;;;12088474;28;20502;-74
2021/04/08 10:36:28;;;;;;;17.33;4.63;;;14.00;60.30;;;;;;12083972;28;20124;-74
2021/04/08 10:42:15;;;;;;;12.75;4.00;;;14.10;59.00;;;;;;12081571;28;20496;-74
2021/04/08 10:48:05;;;;;;;13.63;4.22;;;14.10;59.10;;;;;;12076064;28;21064;-74
2021/04/08 10:53:52;;;;;;;7.78;3.75;;;14.10;58.20;;;;;;12075587;28;20044;-75
2021/04/08 10:59:40;;;;;;;12.18;4.05;;;14.00;58.40;;;;;;12077225;28;20053;-76
2021/04/08 11:05:27;;;;;;;9.95;4.18;;;14.00;58.70;;;;;;12071548;28;20526;-75
2021/04/08 11:11:24;;;;;;;7.10;4.30;;;14.00;58.20;;;;;;12070343;28;20538;-75
2021/04/08 11:17:15;;;;;;;12.05;4.25;;;13.70;58.80;;;;;;12078074;28;20498;-76
2021/04/08 11:23:05;;;;;;;9.18;3.85;;;13.40;59.00;;;;;;11906235;28;20116;-75
2021/04/08 11:28:57;;;;;;;8.88;3.60;;;12.90;59.90;;;;;;11940406;28;20053;-74
2021/04/08 11:34:45;;;;;;;18.65;3.60;;;12.80;60.20;;;;;;11936936;28;20060;-74
2021/04/08 11:40:33;;;;;;;10.60;3.40;;;12.70;60.20;;;;;;11927248;28;20129;-74
2021/04/08 11:46:27;;;;;;;6.63;3.72;;;12.80;60.40;;;;;;11940001;28;20588;-74
2021/04/08 11:52:16;;;;;;;8.88;3.63;;;12.70;59.80;;;;;;11941085;28;20057;-75
2021/04/08 11:58:05;;;;;;;7.28;3.50;;;12.90;59.60;;;;;;11937915;28;20056;-75
2021/04/08 12:03:51;;;;;;;7.80;3.80;;;13.20;58.70;;;;;;11941222;28;20053;-75
2021/04/08 12:09:39;;;;;;;10.00;3.95;;;13.60;59.40;;;;;;11940539;28;20498;-73
2021/04/08 12:15:35;;;;;;;8.82;4.18;;;14.10;58.10;;;;;;11945583;28;20068;-75
2021/04/08 12:21:22;;;;;;;6.97;3.80;;;14.50;57.20;;;;;;11942946;28;20105;-75
2021/04/08 12:27:17;;;;;;;12.88;4.68;;;14.90;56.40;;;;;;11942894;28;20068;-74
2021/04/08 12:33:06;;;;;;;11.52;4.28;;;14.70;55.10;;;;;;11938237;28;20049;-74
2021/04/08 12:38:52;;;;;;;6.97;3.97;;;14.90;55.60;;;;;;11943518;28;20058;-74
2021/04/08 12:47:19;;;;;;;10.85;4.20;;;15.00;53.80;;;;;;12047963;27;140498;-74
2021/04/08 12:53:09;;;;;;;12.38;4.28;;;14.90;53.80;;;;;;12131089;27;20048;-77
2021/04/08 12:58:55;;;;;;;7.60;3.58;;;14.90;54.10;;;;;;12134226;28;20094;-76
2021/04/08 13:04:43;;;;;;;10.93;4.75;;;14.80;54.10;;;;;;12129691;28;20039;-74
2021/04/08 13:10:30;;;;;;;11.73;3.95;;;14.50;53.50;;;;;;12127091;27;20058;-76
2021/04/08 13:16:16;;;;;;;8.52;3.83;;;14.50;54.40;;;;;;12133162;28;20452;-77
2021/04/08 13:22:06;;;;;;;7.57;3.70;;;15.10;53.70;;;;;;12141342;27;20054;-76
2021/04/08 13:27:52;;;;;;;4.75;3.35;;;15.50;53.00;;;;;;12127319;28;20044;-75
2021/04/08 13:33:39;;;;;;;7.40;3.63;;;15.50;52.20;;;;;;12138955;28;20737;-75
2021/04/08 13:39:26;;;;;;;8.82;3.50;;;15.80;53.20;;;;;;12137145;28;20066;-75
2021/04/08 13:45:13;;;;;;;7.10;3.35;;;15.50;51.40;;;;;;12135882;28;20047;-75
2021/04/08 13:51:00;;;;;;;8.20;3.65;;;15.70;50.60;;;;;;12125704;28;20040;-75
2021/04/08 13:56:47;;;;;;;8.90;3.03;;;15.60;51.10;;;;;;12108149;28;20052;-75
2021/04/08 14:02:34;;;;;;;5.50;3.22;;;15.50;51.50;;;;;;12100172;28;20071;-75
2021/04/08 14:08:20;;;;;;;7.50;3.53;;;15.80;52.00;;;;;;12094113;28;20059;-75
2021/04/08 14:14:07;;;;;;;7.30;3.35;;;16.20;50.80;;;;;;12087300;28;20040;-75
2021/04/08 14:19:55;;;;;;;7.32;3.17;;;16.50;50.50;;;;;;12091766;28;20048;-76
2021/04/08 14:25:41;;;;;;;14.88;3.72;;;16.60;50.40;;;;;;12089521;28;20143;-74
2021/04/08 14:31:28;;;;;;;7.63;3.47;;;16.70;49.80;;;;;;12079550;28;20056;-75
2021/04/08 14:37:15;;;;;;;6.07;2.90;;;16.80;49.00;;;;;;12086717;28;20395;-75
2021/04/08 14:43:01;;;;;;;4.38;3.30;;;16.80;49.00;;;;;;12084917;28;20659;-75
2021/04/08 14:48:49;;;;;;;6.30;3.22;;;16.90;48.70;;;;;;12090631;28;20507;-75
2021/04/08 14:54:36;;;;;;;5.10;3.00;;;16.40;48.90;;;;;;12090075;28;20044;-75
2021/04/08 15:00:23;;;;;;;5.82;3.50;;;16.10;49.80;;;;;;12096104;28;20044;-75
2021/04/08 15:06:12;;;;;;;11.18;2.70;;;15.90;49.90;;;;;;12075184;28;20052;-75
2021/04/08 15:11:58;;;;;;;5.90;3.20;;;16.20;50.30;;;;;;12094622;28;20045;-75
2021/04/08 15:17:46;;;;;;;5.50;3.00;;;16.50;49.30;;;;;;12080056;28;20056;-75
2021/04/08 15:23:33;;;;;;;6.53;3.05;;;16.70;49.50;;;;;;12085922;28;20143;-75
2021/04/08 15:29:20;;;;;;;6.63;3.17;;;17.00;49.00;;;;;;12095463;28;20100;-76
2021/04/08 15:35:07;;;;;;;5.90;3.17;;;17.10;47.80;;;;;;12080156;28;20047;-76
2021/04/08 15:40:54;;;;;;;6.63;3.10;;;16.80;48.60;;;;;;12082037;28;20040;-74
2021/04/08 15:46:41;;;;;;;10.07;3.40;;;16.70;49.00;;;;;;12088159;28;20648;-75
2021/04/08 15:52:27;;;;;;;5.93;3.03;;;16.70;48.70;;;;;;12093323;28;20040;-75
2021/04/08 15:58:14;;;;;;;7.47;3.33;;;16.70;49.00;;;;;;12084207;28;20053;-75
2021/04/08 16:04:02;;;;;;;4.15;2.78;;;16.80;48.50;;;;;;12080021;28;20148;-75
2021/04/08 16:09:48;;;;;;;7.32;3.30;;;17.10;48.30;;;;;;12100358;28;20075;-75
2021/04/08 16:15:35;;;;;;;5.45;3.10;;;17.40;47.70;;;;;;12100505;28;20047;-76
2021/04/08 16:21:22;;;;;;;7.68;3.13;;;17.70;47.10;;;;;;12082272;28;20047;-75
2021/04/08 16:27:09;;;;;;;4.78;2.72;;;17.70;46.10;;;;;;12084974;28;20044;-76
2021/04/08 16:32:56;;;;;;;7.65;3.17;;;17.50;46.90;;;;;;12096741;28;20101;-76
2021/04/08 16:38:42;;;;;;;7.05;3.60;;;18.10;46.20;;;;;;12078304;28;20097;-76
2021/04/08 16:44:29;;;;;;;5.90;3.30;;;18.80;44.90;;;;;;12077538;28;20067;-76
2021/04/08 16:50:18;;;;;;;9.07;3.30;;;19.60;43.20;;;;;;12081344;28;20055;-76
2021/04/08 16:56:05;;;;;;;4.57;3.20;;;20.20;42.10;;;;;;12079255;28;20135;-76
2021/04/08 17:01:51;;;;;;;5.57;3.47;;;20.90;40.70;;;;;;12075161;28;20446;-75
2021/04/08 17:07:39;;;;;;;5.43;4.00;;;20.70;40.90;;;;;;12076930;28;20044;-74
2021/04/08 17:13:25;;;;;;;6.93;3.17;;;19.70;42.50;;;;;;12083478;28;20044;-76
2021/04/08 17:19:15;;;;;;;13.07;3.25;;;19.60;43.00;;;;;;12084216;28;20506;-75
2021/04/08 17:25:04;;;;;;;6.50;3.42;;;20.00;42.50;;;;;;12093150;28;20496;-75
2021/04/08 17:30:50;;;;;;;8.32;3.90;;;18.90;43.90;;;;;;12091011;28;20514;-75
2021/04/08 17:36:39;;;;;;;15.25;4.25;;;17.90;46.00;;;;;;12122971;28;20433;-76
2021/04/08 17:42:26;;;;;;;7.97;4.20;;;17.20;47.60;;;;;;12109975;28;20138;-76
2021/04/08 17:48:12;;;;;;;6.45;3.38;;;16.80;48.40;;;;;;12069479;28;20052;-75
2021/04/08 17:53:59;;;;;;;6.55;3.47;;;16.50;50.10;;;;;;12072412;28;20049;-75
2021/04/08 17:59:46;;;;;;;8.65;3.67;;;16.20;50.60;;;;;;12070963;28;20499;-77
2021/04/08 18:05:33;;;;;;;6.13;2.63;;;15.80;51.40;;;;;;12077852;28;20495;-75
2021/04/08 18:11:19;;;;;;;3.13;2.45;;;15.50;53.20;;;;;;12078742;28;20647;-76
2021/04/08 18:17:06;;;;;;;8.15;2.47;;;15.20;55.00;;;;;;12078177;28;20543;-76
2021/04/08 18:22:54;;;;;;;6.30;2.28;;;14.80;55.80;;;;;;12076441;28;20044;-76
2021/04/08 18:28:41;;;;;;;6.60;2.60;;;14.60;56.80;;;;;;12079497;28;20044;-76
2021/04/08 18:34:28;;;;;;;7.75;3.78;;;14.40;57.70;;;;;;12076139;28;20624;-76
2021/04/08 18:40:16;;;;;;;12.48;3.15;;;14.10;57.30;;;;;;12074638;28;20086;-76
2021/04/08 18:46:02;;;;;;;9.43;3.60;;;13.80;57.10;;;;;;12077711;28;20078;-77
2021/04/08 18:51:50;;;;;;;9.10;3.30;;;13.60;58.70;;;;;;12078843;28;20506;-74
2021/04/08 18:57:36;;;;;;;11.23;3.67;;;13.40;58.10;;;;;;12076869;28;20051;-74
2021/04/08 19:03:23;;;;;;;7.68;3.75;;;13.40;58.80;;;;;;12076786;28;20044;-75
2021/04/08 19:09:10;;;;;;;6.80;3.90;;;13.30;58.50;;;;;;12076516;28;20683;-76
2021/04/08 19:14:56;;;;;;;11.73;4.10;;;13.10;59.60;;;;;;12080683;28;20526;-76
2021/04/08 19:20:43;;;;;;;8.23;3.40;;;12.90;60.10;;;;;;12073719;28;20056;-76
2021/04/08 19:26:31;;;;;;;10.40;3.92;;;12.90;61.20;;;;;;12076667;28;20185;-76
2021/04/08 19:32:17;;;;;;;10.63;4.28;;;12.80;61.70;;;;;;12073690;28;20048;-74
2021/04/08 19:38:03;;;;;;;10.75;4.20;;;12.70;61.00;;;;;;12072674;28;20052;-74
2021/04/08 19:43:51;;;;;;;10.68;3.78;;;12.60;61.30;;;;;;12074260;28;20056;-74
2021/04/08 19:49:37;;;;;;;13.73;4.22;;;12.50;62.60;;;;;;12076008;28;20074;-75
2021/04/08 19:55:24;;;;;;;7.57;3.85;;;12.40;61.50;;;;;;12072945;28;20089;-74
2021/04/08 20:01:14;;;;;;;6.18;3.40;;;12.40;62.10;;;;;;12074289;28;20051;-74
2021/04/08 20:07:00;;;;;;;12.43;4.63;;;12.40;62.30;;;;;;12070302;28;20062;-74
2021/04/08 20:12:48;;;;;;;15.85;4.60;;;12.40;62.80;;;;;;12077150;28;20052;-74
2021/04/08 20:18:35;;;;;;;9.75;4.70;;;12.30;63.20;;;;;;12074628;28;20049;-75
2021/04/08 20:24:22;;;;;;;17.35;6.97;;;12.20;63.80;;;;;;12071991;28;20044;-73
2021/04/08 20:30:10;;;;;;;15.07;7.05;;;12.10;64.10;;;;;;12072198;28;20040;-74
2021/04/08 20:35:57;;;;;;;14.88;7.15;;;12.10;64.30;;;;;;12071498;28;20052;-74
2021/04/08 20:41:43;;;;;;;10.10;6.32;;;12.10;65.00;;;;;;12075122;28;20117;-74
2021/04/08 20:47:30;;;;;;;11.32;6.43;;;12.00;64.30;;;;;;12070540;28;20056;-75
2021/04/08 20:53:17;;;;;;;15.52;6.05;;;12.00;64.90;;;;;;12067692;28;20052;-74
2021/04/08 20:59:03;;;;;;;13.38;6.40;;;12.00;64.90;;;;;;12070012;28;20056;-75
2021/04/08 21:04:50;;;;;;;8.90;5.57;;;11.70;65.00;;;;;;12070753;28;20048;-73
2021/04/08 21:10:37;;;;;;;10.32;5.55;;;11.60;65.60;;;;;;12079845;28;20056;-74
2021/04/08 21:16:23;;;;;;;11.32;6.47;;;11.50;65.70;;;;;;12076488;28;20059;-74
2021/04/08 21:22:09;;;;;;;9.48;5.75;;;11.40;66.00;;;;;;12078802;28;20052;-74
2021/04/08 21:27:57;;;;;;;15.95;5.68;;;11.40;66.00;;;;;;12078889;28;20513;-74
2021/04/08 21:33:43;;;;;;;13.43;6.43;;;11.40;65.90;;;;;;12078837;28;20113;-76
2021/04/08 21:39:29;;;;;;;13.70;5.93;;;11.40;66.10;;;;;;12079878;28;20056;-75
2021/04/08 21:45:17;;;;;;;14.18;6.35;;;11.30;66.20;;;;;;12077983;28;20503;-74
2021/04/08 21:51:04;;;;;;;10.85;6.22;;;11.30;65.90;;;;;;12082981;28;20049;-75
2021/04/08 21:56:50;;;;;;;13.68;6.97;;;11.20;66.70;;;;;;12081950;28;20052;-74
2021/04/08 22:02:38;;;;;;;11.43;6.90;;;11.20;66.70;;;;;;12092903;28;20063;-79
2021/04/08 22:08:24;;;;;;;13.25;6.90;;;11.20;67.20;;;;;;12094758;28;20877;-79
2021/04/08 22:14:11;;;;;;;14.63;7.45;;;11.10;67.80;;;;;;12093743;28;20036;-79
2021/04/08 22:19:59;;;;;;;12.63;7.25;;;11.10;68.80;;;;;;12092581;28;20060;-80
2021/04/08 22:25:51;;;;;;;14.18;7.78;;;10.90;68.20;;;;;;12097072;28;20096;-82
2021/04/08 22:31:38;;;;;;;14.15;6.55;;;10.80;68.30;;;;;;12099428;28;20063;-82
2021/04/08 22:37:25;;;;;;;25.13;7.97;;;10.70;68.20;;;;;;12083278;28;20044;-76
2021/04/08 22:43:14;;;;;;;20.33;7.22;;;10.70;68.80;;;;;;12089335;28;20075;-82
2021/04/08 22:49:00;;;;;;;13.38;7.20;;;10.80;68.90;;;;;;12096417;28;20052;-82
2021/04/08 22:54:47;;;;;;;13.85;7.55;;;10.80;68.80;;;;;;12098809;28;20044;-81
2021/04/08 23:00:38;;;;;;;13.43;6.95;;;10.70;69.50;;;;;;12095719;28;20048;-82
2021/04/08 23:06:24;;;;;;;17.67;7.32;;;10.60;69.70;;;;;;12091899;28;20499;-82
2021/04/08 23:12:12;;;;;;;17.05;7.53;;;10.60;69.20;;;;;;12092013;28;20040;-81
2021/04/08 23:17:58;;;;;;;13.38;6.68;;;10.50;69.10;;;;;;12085482;28;20051;-76
2021/04/08 23:23:44;;;;;;;12.63;6.72;;;10.50;69.50;;;;;;12076858;28;20056;-75
2021/04/08 23:29:32;;;;;;;18.25;8.15;;;10.40;69.50;;;;;;12074227;28;20048;-76
2021/04/08 23:35:18;;;;;;;14.88;7.95;;;10.50;69.60;;;;;;12080724;28;20092;-75
2021/04/08 23:41:05;;;;;;;21.35;7.32;;;10.30;69.60;;;;;;12079600;28;20048;-75
2021/04/08 23:46:54;;;;;;;14.07;7.30;;;10.30;69.80;;;;;;12078617;28;20043;-75
2021/04/08 23:52:42;;;;;;;17.20;8.00;;;10.20;69.80;;;;;;12078702;28;20049;-75
2021/04/08 23:58:29;;;;;;;17.55;9.20;;;10.20;69.80;;;;;;12080864;28;20056;-75
